Time;durP1;ratioP1;P1;durP2;ratioP2;P2;SDS_P1;SDS_P2;PMS_P1;PMS_P2;Temp;Humidity;BMP_temperature;BMP_pressure;BME280_temperature;BME280_humidity;BME280_pressure;Samples;Min_cycle;Max_cycle;Signal;HPM_P1;HPM_P2
2022/09/03 00:01:17;;;;;;;12.77;7.77;;;;;;;16.25;100.00;94656.78;5064047;28;20581;-73
2022/09/03 00:03:47;;;;;;;12.37;7.20;;;;;;;16.25;100.00;94669.09;5062955;28;20205;-73
2022/09/03 00:06:19;;;;;;;10.23;7.00;;;;;;;16.26;100.00;94670.69;5063499;28;20216;-74
2022/09/03 00:08:58;;;;;;;9.83;7.57;;;;;;;16.19;100.00;94668.28;5062121;28;21554;-76
2022/09/03 00:11:31;;;;;;;10.57;7.33;;;;;;;16.60;100.00;94673.81;5062095;28;20228;-74
2022/09/03 00:14:02;;;;;;;11.03;7.20;;;;;;;16.97;100.00;94674.50;5061386;28;20201;-74
2022/09/03 00:16:38;;;;;;;13.00;6.77;;;;;;;17.18;100.00;94670.13;5060911;28;20229;-73
2022/09/03 00:19:05;;;;;;;9.37;7.10;;;;;;;16.90;100.00;94669.53;5063226;28;20255;-73
2022/09/03 00:21:38;;;;;;;10.57;7.77;;;;;;;16.74;100.00;94667.06;5062797;28;20235;-74
2022/09/03 00:24:10;;;;;;;12.50;7.90;;;;;;;16.56;100.00;94667.50;5063339;28;20239;-74
2022/09/03 00:26:39;;;;;;;8.93;7.23;;;;;;;16.38;100.00;94664.22;5062858;28;20197;-73
2022/09/03 00:29:12;;;;;;;11.73;7.90;;;;;;;16.30;100.00;94663.91;5062531;28;20216;-73
2022/09/03 00:31:43;;;;;;;11.23;8.13;;;;;;;16.29;100.00;94660.50;5060570;28;20667;-73
2022/09/03 00:34:16;;;;;;;10.00;7.80;;;;;;;16.27;100.00;94659.19;5061893;28;20212;-72
2022/09/03 00:36:45;;;;;;;9.50;7.37;;;;;;;16.28;100.00;94658.91;5061886;28;20649;-74
2022/09/03 00:39:15;;;;;;;10.50;7.47;;;;;;;16.33;100.00;94656.31;5062511;28;20800;-73
2022/09/03 00:41:55;;;;;;;13.57;7.60;;;;;;;16.33;100.00;94656.31;5062144;28;20217;-76
2022/09/03 00:44:48;;;;;;;11.50;7.97;;;;;;;16.23;100.00;94653.63;5062892;28;20208;-75
2022/09/03 00:47:24;;;;;;;13.60;7.93;;;;;;;16.20;100.00;94650.72;5062821;28;20286;-74
2022/09/03 00:50:03;;;;;;;12.47;8.03;;;;;;;16.21;100.00;94666.22;5062180;28;20675;-75
2022/09/03 00:52:45;;;;;;;11.87;7.63;;;;;;;16.20;100.00;94659.38;5059513;28;20232;-75
2022/09/03 00:55:26;;;;;;;9.77;7.10;;;;;;;16.32;100.00;94659.19;5062058;28;20225;-75
2022/09/03 00:58:07;;;;;;;10.10;6.87;;;;;;;16.62;100.00;94659.41;5060019;28;20236;-74
2022/09/03 01:01:07;;;;;;;9.60;6.47;;;;;;;16.82;100.00;94666.59;5062393;28;20216;-75
2022/09/03 01:03:43;;;;;;;11.20;6.80;;;;;;;16.66;100.00;94663.09;5060719;28;20197;-75
2022/09/03 01:06:19;;;;;;;8.83;7.10;;;;;;;16.50;100.00;94664.03;5061734;28;20197;-75
2022/09/03 01:09:09;;;;;;;8.87;6.50;;;;;;;16.46;100.00;94663.75;5060654;28;20205;-75
2022/09/03 01:11:48;;;;;;;9.30;6.73;;;;;;;16.39;100.00;94665.78;5060990;28;20223;-75
2022/09/03 01:14:29;;;;;;;9.07;6.90;;;;;;;16.35;100.00;94663.94;5062585;28;20288;-75
2022/09/03 01:17:03;;;;;;;11.53;6.97;;;;;;;16.35;100.00;94672.59;5061631;28;20233;-75
2022/09/03 01:19:53;;;;;;;8.03;6.60;;;;;;;16.20;100.00;94662.00;5060569;28;20296;-75
2022/09/03 01:22:46;;;;;;;9.00;6.73;;;;;;;16.16;100.00;94676.66;5061338;28;20213;-75
2022/09/03 01:25:17;;;;;;;13.03;6.93;;;;;;;16.16;100.00;94670.66;5062688;28;20204;-75
2022/09/03 01:28:01;;;;;;;9.47;7.40;;;;;;;16.15;100.00;94684.78;5062042;28;20225;-75
2022/09/03 01:30:31;;;;;;;9.10;6.97;;;;;;;16.06;100.00;94689.69;5061491;28;20221;-75
2022/09/03 01:33:09;;;;;;;10.57;6.90;;;;;;;16.11;100.00;94687.13;5058562;28;20212;-75
2022/09/03 01:35:42;;;;;;;8.83;6.40;;;;;;;16.25;100.00;94703.19;5061881;28;20704;-75
2022/09/03 01:38:26;;;;;;;9.77;6.87;;;;;;;16.32;100.00;94709.03;5061771;28;20194;-75
2022/09/03 01:43:59;;;;;;;9.67;7.20;;;;;;;16.27;100.00;94706.38;5064578;28;20314;-74
2022/09/03 01:46:33;;;;;;;9.47;7.13;;;;;;;16.29;100.00;94709.53;5062514;28;20442;-75
2022/09/03 01:49:13;;;;;;;11.20;8.03;;;;;;;16.27;100.00;94693.28;5062853;28;20193;-75
2022/09/03 01:51:40;;;;;;;9.40;7.53;;;;;;;16.25;100.00;94685.63;5063646;28;20198;-75
2022/09/03 01:54:23;;;;;;;12.63;8.03;;;;;;;16.18;100.00;94674.59;5063938;28;20209;-75
2022/09/03 01:57:21;;;;;;;8.50;7.00;;;;;;;16.05;100.00;94675.00;5067739;28;20208;-75
2022/09/03 01:59:57;;;;;;;10.87;7.23;;;;;;;16.06;100.00;94678.41;5065148;28;20702;-75
2022/09/03 02:02:27;;;;;;;11.27;7.93;;;;;;;16.08;100.00;94676.34;5063774;28;20224;-75
2022/09/03 02:05:01;;;;;;;10.03;7.57;;;;;;;15.93;100.00;94678.84;5064008;28;20213;-75
2022/09/03 02:07:33;;;;;;;11.13;6.93;;;;;;;15.99;100.00;94667.38;5065346;28;20207;-74
2022/09/03 02:10:00;;;;;;;11.27;7.63;;;;;;;16.04;100.00;94675.28;5063237;28;20201;-74
2022/09/03 02:12:32;;;;;;;10.77;7.60;;;;;;;16.02;100.00;94686.00;5065200;28;20342;-74
2022/09/03 02:15:02;;;;;;;11.40;7.90;;;;;;;15.92;100.00;94699.03;5064184;28;20240;-75
2022/09/03 02:17:30;;;;;;;11.37;8.07;;;;;;;15.96;100.00;94699.31;5062124;28;20299;-75
2022/09/03 02:19:58;;;;;;;10.60;7.80;;;;;;;16.04;100.00;94693.63;5064381;28;20220;-74
2022/09/03 02:22:25;;;;;;;12.17;7.53;;;;;;;15.93;100.00;94684.88;5064845;28;20205;-74
2022/09/03 02:24:53;;;;;;;10.60;7.87;;;;;;;15.81;100.00;94684.25;5064912;28;20217;-75
2022/09/03 02:27:20;;;;;;;10.43;8.10;;;;;;;15.72;100.00;94681.31;5064938;28;20205;-76
2022/09/03 02:30:03;;;;;;;10.43;7.90;;;;;;;15.73;100.00;94679.44;5064178;28;20202;-74
2022/09/03 02:32:32;;;;;;;13.47;8.50;;;;;;;15.83;100.00;94700.53;5064454;28;20205;-75
2022/09/03 02:34:59;;;;;;;10.07;8.00;;;;;;;15.84;100.00;94702.13;5064418;28;20279;-76
2022/09/03 02:37:26;;;;;;;14.20;8.23;;;;;;;15.89;100.00;94697.69;5063465;28;20213;-76
2022/09/03 02:39:53;;;;;;;11.40;8.30;;;;;;;15.87;100.00;94699.00;5064407;28;20341;-74
2022/09/03 02:42:20;;;;;;;9.73;7.43;;;;;;;15.79;100.00;94700.22;5065850;28;20198;-74
2022/09/03 02:44:50;;;;;;;11.07;8.53;;;;;;;15.72;100.00;94697.03;5064355;28;20945;-74
2022/09/03 02:47:19;;;;;;;11.53;8.10;;;;;;;15.75;100.00;94706.22;5063712;28;21568;-75
2022/09/03 02:49:47;;;;;;;10.97;8.13;;;;;;;15.69;100.00;94702.75;5063452;28;20327;-74
2022/09/03 02:52:15;;;;;;;10.57;7.60;;;;;;;15.69;100.00;94707.19;5064899;28;20205;-75
2022/09/03 02:54:44;;;;;;;12.97;8.47;;;;;;;15.63;100.00;94702.94;5063508;28;20278;-75
2022/09/03 02:57:13;;;;;;;10.57;7.33;;;;;;;15.63;100.00;94709.00;5063290;28;20209;-75
2022/09/03 02:59:43;;;;;;;11.20;7.77;;;;;;;15.61;100.00;94710.28;5064461;28;20225;-76
2022/09/03 03:02:10;;;;;;;12.00;8.20;;;;;;;15.65;100.00;94706.91;5063909;28;20288;-75
2022/09/03 03:04:37;;;;;;;13.27;8.30;;;;;;;15.66;100.00;94710.31;5063401;28;20319;-75
2022/09/03 03:07:05;;;;;;;12.13;8.23;;;;;;;15.70;100.00;94711.41;5065656;28;20223;-76
2022/09/03 03:09:32;;;;;;;12.17;8.33;;;;;;;15.62;100.00;94707.41;5063763;28;20205;-76
2022/09/03 03:11:59;;;;;;;10.87;8.37;;;;;;;15.67;100.00;94709.28;5062497;28;20213;-75
2022/09/03 03:14:26;;;;;;;17.30;8.20;;;;;;;15.61;100.00;94700.56;5060316;28;20201;-76
2022/09/03 03:16:52;;;;;;;12.20;8.73;;;;;;;15.60;100.00;94701.63;5063755;28;20256;-76
2022/09/03 03:19:19;;;;;;;12.07;9.10;;;;;;;15.64;100.00;94696.69;5063968;28;20213;-77
2022/09/03 03:21:46;;;;;;;11.53;8.50;;;;;;;15.58;100.00;94698.47;5062989;28;20225;-77
2022/09/03 03:24:14;;;;;;;16.40;8.80;;;;;;;15.67;100.00;94696.97;5064616;28;20213;-75
2022/09/03 03:26:41;;;;;;;12.07;8.50;;;;;;;15.70;100.00;94701.69;5064497;28;20205;-77
2022/09/03 03:29:08;;;;;;;12.60;8.47;;;;;;;15.77;100.00;94701.50;5064203;28;20209;-77
2022/09/03 03:31:36;;;;;;;11.00;8.27;;;;;;;15.79;100.00;94708.06;5061602;28;20201;-76
2022/09/03 03:34:03;;;;;;;14.27;8.67;;;;;;;15.86;100.00;94705.25;5061781;28;20215;-73
2022/09/03 03:36:32;;;;;;;11.07;8.30;;;;;;;15.84;100.00;94702.13;5061835;28;20628;-73
2022/09/03 03:39:00;;;;;;;12.27;8.53;;;;;;;15.83;100.00;94701.31;5062483;28;20290;-73
2022/09/03 03:41:31;;;;;;;17.07;7.87;;;;;;;15.75;100.00;94701.78;5064496;28;20208;-75
2022/09/03 03:44:00;;;;;;;13.20;8.43;;;;;;;15.68;100.00;94706.41;5060334;28;20781;-74
2022/09/03 03:46:30;;;;;;;13.40;8.43;;;;;;;15.71;100.00;94705.13;5060644;28;20205;-74
2022/09/03 03:48:58;;;;;;;11.67;8.20;;;;;;;15.68;100.00;94695.94;5061961;28;20209;-74
2022/09/03 03:51:25;;;;;;;11.63;8.13;;;;;;;15.70;100.00;94693.84;5062176;28;20804;-74
2022/09/03 03:53:56;;;;;;;12.13;8.23;;;;;;;15.70;100.00;94703.56;5062281;28;20259;-74
2022/09/03 03:56:25;;;;;;;10.97;7.80;;;;;;;15.71;100.00;94705.13;5061039;28;20734;-74
2022/09/03 03:58:53;;;;;;;12.97;8.90;;;;;;;15.74;100.00;94712.47;5063506;28;20215;-74
2022/09/03 04:01:22;;;;;;;11.93;8.30;;;;;;;15.69;100.00;94705.38;5063646;28;20201;-73
2022/09/03 04:03:49;;;;;;;13.10;8.57;;;;;;;15.79;100.00;94702.84;5063176;28;20208;-74
2022/09/03 04:06:18;;;;;;;13.47;8.70;;;;;;;15.76;100.00;94710.41;5060806;28;20220;-73
2022/09/03 04:08:47;;;;;;;13.03;8.87;;;;;;;15.76;100.00;94703.34;5061769;28;20212;-73
2022/09/03 04:11:16;;;;;;;14.00;8.87;;;;;;;15.75;100.00;94709.63;5062111;28;20217;-73
2022/09/03 04:13:45;;;;;;;11.53;8.00;;;;;;;15.77;100.00;94701.50;5062475;28;20224;-73
2022/09/03 04:16:15;;;;;;;11.97;8.50;;;;;;;15.68;100.00;94703.78;5063116;28;20237;-73
2022/09/03 04:18:42;;;;;;;12.80;8.63;;;;;;;15.77;100.00;94704.13;5062143;28;20232;-73
2022/09/03 04:21:11;;;;;;;12.17;8.93;;;;;;;15.68;100.00;94703.00;5062185;28;20201;-73
2022/09/03 04:23:39;;;;;;;11.77;8.10;;;;;;;15.64;100.00;94707.16;5061681;28;20308;-75
2022/09/03 04:26:07;;;;;;;12.03;8.53;;;;;;;15.64;100.00;94707.16;5062225;28;20214;-74
2022/09/03 04:28:35;;;;;;;12.17;8.37;;;;;;;15.74;100.00;94709.88;5061825;28;20209;-75
2022/09/03 04:31:02;;;;;;;12.73;8.23;;;;;;;15.75;100.00;94714.06;5062829;28;20840;-76
2022/09/03 04:33:31;;;;;;;14.30;8.23;;;;;;;15.68;100.00;94723.97;5060533;28;20232;-74
2022/09/03 04:36:09;;;;;;;11.37;8.03;;;;;;;15.61;100.00;94724.16;5063557;28;20217;-74
2022/09/03 04:38:38;;;;;;;12.00;8.13;;;;;;;15.61;100.00;94734.63;5062546;28;20585;-73
2022/09/03 04:41:05;;;;;;;12.77;8.50;;;;;;;15.64;100.00;94734.13;5062222;28;20275;-74
2022/09/03 04:43:32;;;;;;;11.20;8.33;;;;;;;15.63;100.00;94735.19;5062445;28;20209;-74
2022/09/03 04:46:00;;;;;;;15.27;9.00;;;;;;;15.63;100.00;94740.44;5062959;28;20206;-73
2022/09/03 04:48:27;;;;;;;14.57;8.57;;;;;;;15.67;100.00;94741.50;5061831;28;20212;-74
2022/09/03 04:51:04;;;;;;;11.20;7.80;;;;;;;15.67;100.00;94748.59;5059693;28;20209;-75
2022/09/03 04:53:32;;;;;;;11.70;8.30;;;;;;;15.65;100.00;94745.41;5058754;28;20268;-77
2022/09/03 04:55:59;;;;;;;10.63;8.23;;;;;;;15.64;100.00;94756.94;5057972;28;20235;-76
2022/09/03 04:58:26;;;;;;;15.07;8.67;;;;;;;15.62;100.00;94756.38;5058628;28;20197;-76
2022/09/03 05:00:53;;;;;;;12.87;8.87;;;;;;;15.60;100.00;94751.41;5061713;28;20193;-81
2022/09/03 05:03:20;;;;;;;15.37;8.60;;;;;;;15.60;100.00;94761.09;5061663;28;20207;-77
2022/09/03 05:05:53;;;;;;;13.47;8.20;;;;;;;15.64;100.00;94762.94;5062689;28;20212;-79
2022/09/03 05:08:21;;;;;;;9.07;7.40;;;;;;;15.61;100.00;94768.69;5063277;28;20266;-77
2022/09/03 05:10:48;;;;;;;10.00;7.43;;;;;;;15.64;100.00;94773.44;5063249;28;20209;-78
2022/09/03 05:13:15;;;;;;;11.57;8.07;;;;;;;15.69;100.00;94773.50;5062047;28;20197;-78
2022/09/03 05:15:44;;;;;;;14.30;7.87;;;;;;;15.65;100.00;94769.00;5061378;28;20231;-77
2022/09/03 05:18:12;;;;;;;12.03;8.20;;;;;;;15.59;100.00;94773.38;5064656;28;20308;-77
2022/09/03 05:20:38;;;;;;;10.77;8.20;;;;;;;15.61;100.00;94773.94;5066356;28;20331;-78
2022/09/03 05:23:06;;;;;;;11.50;8.20;;;;;;;15.69;100.00;94765.66;5065187;28;20213;-79
2022/09/03 05:25:34;;;;;;;12.07;8.33;;;;;;;15.69;100.00;94773.50;5067007;28;20216;-79
2022/09/03 05:28:01;;;;;;;10.37;7.43;;;;;;;15.68;100.00;94777.16;5066199;28;20215;-79
2022/09/03 05:30:28;;;;;;;10.90;8.10;;;;;;;15.68;100.00;94779.78;5065580;28;20287;-79
2022/09/03 05:32:56;;;;;;;11.80;8.30;;;;;;;15.67;100.00;94769.56;5065236;28;20213;-78
2022/09/03 05:35:23;;;;;;;11.53;7.60;;;;;;;15.75;100.00;94769.13;5066191;28;20622;-77
2022/09/03 05:37:50;;;;;;;9.67;7.63;;;;;;;15.75;100.00;94776.97;5065897;28;21242;-78
2022/09/03 05:40:17;;;;;;;10.70;8.00;;;;;;;15.92;100.00;94782.13;5066727;28;20214;-77
2022/09/03 05:42:45;;;;;;;10.97;8.13;;;;;;;15.89;100.00;94786.03;5066688;28;20208;-78
2022/09/03 05:45:12;;;;;;;9.40;7.50;;;;;;;15.90;100.00;94777.13;5066926;28;20197;-77
2022/09/03 05:47:39;;;;;;;10.83;8.00;;;;;;;15.85;100.00;94777.84;5066055;28;20213;-77
2022/09/03 05:50:10;;;;;;;12.70;8.60;;;;;;;16.02;100.00;94787.44;5063392;28;20205;-77
2022/09/03 05:52:37;;;;;;;11.47;8.50;;;;;;;16.08;100.00;94783.81;5062094;28;20757;-77
2022/09/03 05:55:05;;;;;;;9.67;7.43;;;;;;;16.09;100.00;94788.03;5064345;28;20201;-77
2022/09/03 05:57:33;;;;;;;11.03;7.07;;;;;;;16.20;100.00;94793.13;5064009;28;20710;-78
2022/09/03 06:00:01;;;;;;;9.57;7.47;;;;;;;16.11;100.00;94783.34;5064849;28;20206;-77
2022/09/03 06:02:28;;;;;;;9.53;7.80;;;;;;;16.16;100.00;94786.78;5064056;28;20201;-77
2022/09/03 06:04:56;;;;;;;11.77;7.20;;;;;;;16.22;100.00;94782.41;5065677;28;20205;-77
2022/09/03 06:07:23;;;;;;;9.33;7.23;;;;;;;16.34;100.00;94796.94;5065181;28;20558;-77
2022/09/03 06:09:50;;;;;;;9.73;6.87;;;;;;;16.38;100.00;94799.84;5063583;28;20204;-77
2022/09/03 06:12:16;;;;;;;9.23;6.97;;;;;;;16.31;100.00;94797.44;5064507;28;20205;-77
2022/09/03 06:14:43;;;;;;;8.77;6.93;;;;;;;16.44;100.00;94802.28;5064028;28;20232;-77
2022/09/03 06:17:13;;;;;;;10.67;8.10;;;;;;;16.52;100.00;94794.97;5065580;28;20228;-77
2022/09/03 06:19:40;;;;;;;10.03;7.67;;;;;;;16.61;100.00;94804.78;5064946;28;20198;-78
2022/09/03 06:22:07;;;;;;;11.03;7.80;;;;;;;16.64;100.00;94801.66;5065108;28;20205;-78
2022/09/03 06:24:34;;;;;;;10.57;7.50;;;;;;;16.72;100.00;94803.03;5065093;28;20201;-77
2022/09/03 06:27:00;;;;;;;11.23;8.03;;;;;;;16.69;100.00;94793.81;5063255;28;20200;-77
2022/09/03 06:29:27;;;;;;;13.37;7.73;;;;;;;16.86;100.00;94804.16;5062736;28;20221;-78
2022/09/03 06:31:55;;;;;;;11.90;8.47;;;;;;;16.85;100.00;94792.88;5061308;28;20327;-77
2022/09/03 06:34:24;;;;;;;12.27;8.20;;;;;;;16.94;100.00;94807.09;5061963;28;20193;-78
2022/09/03 06:36:51;;;;;;;12.87;8.80;;;;;;;17.08;100.00;94799.59;5065380;28;20225;-78
2022/09/03 06:39:18;;;;;;;13.97;9.03;;;;;;;17.10;100.00;94797.50;5065476;28;21254;-78
2022/09/03 06:41:50;;;;;;;13.00;8.77;;;;;;;17.12;100.00;94799.84;5064971;28;20220;-77
2022/09/03 06:44:17;;;;;;;11.10;7.57;;;;;;;17.16;100.00;94798.31;5064339;28;20927;-77
2022/09/03 06:46:46;;;;;;;10.80;8.60;;;;;;;17.22;100.00;94799.91;5065742;28;20300;-77
2022/09/03 06:49:13;;;;;;;11.57;7.97;;;;;;;17.20;100.00;94802.03;5065779;28;20307;-77
2022/09/03 06:51:42;;;;;;;11.27;7.67;;;;;;;17.21;100.00;94803.59;5065084;28;20205;-80
2022/09/03 06:54:10;;;;;;;11.67;7.70;;;;;;;16.94;100.00;94807.09;5064735;28;20198;-81
2022/09/03 06:56:54;;;;;;;10.73;8.13;;;;;;;16.95;100.00;94808.69;5064668;28;20232;-79
2022/09/03 06:59:20;;;;;;;9.83;7.87;;;;;;;17.07;100.00;94805.09;5063793;28;20660;-78
2022/09/03 07:01:47;;;;;;;11.23;7.60;;;;;;;17.16;100.00;94803.56;5062000;28;20209;-78
2022/09/03 07:04:16;;;;;;;12.70;7.90;;;;;;;17.03;100.00;94810.03;5064051;28;20256;-80
2022/09/03 07:06:45;;;;;;;10.73;8.00;;;;;;;17.17;100.00;94815.66;5062872;28;20200;-77
2022/09/03 07:09:13;;;;;;;14.17;7.83;;;;;;;17.23;100.00;94814.66;5063049;28;20595;-78
2022/09/03 07:11:45;;;;;;;10.67;7.80;;;;;;;17.27;100.00;94818.31;5063876;28;20740;-77
2022/09/03 07:14:12;;;;;;;12.13;8.30;;;;;;;17.30;100.00;94821.25;5061963;28;20304;-76
2022/09/03 07:16:40;;;;;;;11.20;7.80;;;;;;;17.48;100.00;94823.44;5060907;28;20229;-73
2022/09/03 07:19:08;;;;;;;9.30;7.27;;;;;;;17.54;100.00;94821.66;5061728;28;20205;-77
2022/09/03 07:21:36;;;;;;;13.57;9.50;;;;;;;17.75;100.00;94823.28;5064471;28;20213;-77
2022/09/03 07:24:05;;;;;;;12.80;8.90;;;;;;;17.77;100.00;94826.47;5065302;28;20296;-78
2022/09/03 07:26:35;;;;;;;10.53;8.00;;;;;;;17.83;100.00;94829.91;5065147;28;20691;-79
2022/09/03 07:29:02;;;;;;;8.30;6.67;;;;;;;17.92;100.00;94837.03;5063434;28;20204;-78
2022/09/03 07:31:32;;;;;;;10.10;7.20;;;;;;;17.88;100.00;94827.28;5062716;28;20588;-76
2022/09/03 07:34:00;;;;;;;12.47;9.07;;;;;;;17.77;100.00;94831.75;5061787;28;20206;-78
2022/09/03 07:36:29;;;;;;;11.93;8.03;;;;;;;17.79;100.00;94837.53;5061719;28;20209;-76
2022/09/03 07:38:57;;;;;;;11.03;9.10;;;;;;;17.87;100.00;94839.66;5062382;28;20205;-76
2022/09/03 07:41:27;;;;;;;9.80;7.37;;;;;;;17.91;100.00;94845.97;5063806;28;20718;-75
2022/09/03 07:43:54;;;;;;;11.10;7.20;;;;;;;17.88;100.00;94843.88;5064464;28;20201;-76
2022/09/03 07:46:23;;;;;;;9.80;7.20;;;;;;;17.78;100.00;94843.81;5063604;28;20209;-76
2022/09/03 07:48:51;;;;;;;9.00;7.10;;;;;;;17.72;100.00;94841.44;5064188;28;20213;-77
2022/09/03 07:51:18;;;;;;;9.90;7.67;;;;;;;17.70;100.00;94849.56;5062578;28;20197;-74
2022/09/03 07:53:46;;;;;;;9.27;7.40;;;;;;;17.73;100.00;94843.00;5062161;28;20339;-74
2022/09/03 07:56:13;;;;;;;11.03;7.40;;;;;;;17.87;100.00;94847.53;5063611;28;20808;-77
2022/09/03 07:58:42;;;;;;;8.77;6.77;;;;;;;18.00;100.00;94848.91;5063884;28;20719;-78
2022/09/03 08:01:10;;;;;;;8.40;7.10;;;;;;;18.18;100.00;94845.00;5064539;28;20583;-76
2022/09/03 08:03:38;;;;;;;6.87;6.10;;;;;;;18.36;100.00;94842.66;5063675;28;20204;-77
2022/09/03 08:06:07;;;;;;;9.23;7.00;;;;;;;18.55;100.00;94848.25;5063234;28;20215;-77
2022/09/03 08:08:36;;;;;;;8.60;6.53;;;;;;;18.47;100.00;94854.78;5063217;28;20198;-77
2022/09/03 08:11:09;;;;;;;8.97;6.30;;;;;;;18.46;100.00;94860.31;5062115;28;20201;-77
2022/09/03 08:13:37;;;;;;;11.07;7.60;;;;;;;18.55;100.00;94858.78;5061685;28;20197;-77
2022/09/03 08:16:06;;;;;;;7.37;6.37;;;;;;;18.57;100.00;94854.03;5063254;28;20229;-77
2022/09/03 08:18:36;;;;;;;7.00;5.80;;;;;;;18.55;100.00;94859.56;5063164;28;20309;-77
2022/09/03 08:21:05;;;;;;;7.80;6.40;;;;;;;18.56;100.00;94849.81;5063317;28;20201;-78
2022/09/03 08:23:33;;;;;;;8.47;6.43;;;;;;;18.64;100.00;94839.53;5062355;28;20259;-76
2022/09/03 08:26:00;;;;;;;9.70;6.50;;;;;;;18.85;100.00;94853.50;5060040;28;21542;-76
2022/09/03 08:28:27;;;;;;;6.22;5.35;;;;;;;19.24;100.00;94851.09;5060997;28;20210;-76
2022/09/03 08:30:54;;;;;;;7.85;5.95;;;;;;;19.46;100.00;94854.25;5062804;28;20638;-77
2022/09/03 08:33:35;;;;;;;7.85;5.03;;;;;;;19.63;99.83;94852.06;5063765;28;20204;-77
2022/09/03 08:36:04;;;;;;;8.02;5.80;;;;;;;19.57;100.00;94849.72;5062732;28;20255;-76
2022/09/03 08:38:32;;;;;;;6.50;5.65;;;;;;;19.71;99.22;94851.50;5063528;28;20781;-76
2022/09/03 08:41:04;;;;;;;6.95;5.93;;;;;;;19.63;98.69;94853.91;5062145;28;20209;-77
2022/09/03 08:43:34;;;;;;;6.47;5.47;;;;;;;19.81;100.00;94858.59;5061753;28;20278;-77
2022/09/03 08:46:02;;;;;;;7.68;6.22;;;;;;;19.71;99.10;94840.19;5061871;28;20217;-76
2022/09/03 08:48:32;;;;;;;6.68;5.97;;;;;;;19.65;99.08;94841.28;5061593;28;20672;-76
2022/09/03 08:51:03;;;;;;;8.70;6.47;;;;;;;19.71;100.00;94848.09;5062831;28;20652;-78
2022/09/03 08:53:40;;;;;;;6.60;5.90;;;;;;;19.67;99.08;94857.59;5065824;28;20205;-77
2022/09/03 08:56:11;;;;;;;8.02;6.25;;;;;;;19.78;98.53;94838.03;5057543;28;20205;-76
2022/09/03 08:58:42;;;;;;;6.70;5.85;;;;;;;19.90;99.78;94849.06;5050588;28;20227;-76
2022/09/03 09:01:18;;;;;;;9.10;6.00;;;;;;;19.96;97.36;94852.47;5064537;28;20233;-75
2022/09/03 09:03:56;;;;;;;7.20;6.32;;;;;;;19.98;96.43;94848.50;5064748;28;20200;-76
2022/09/03 09:06:30;;;;;;;7.88;6.43;;;;;;;20.00;97.59;94848.25;5061958;28;20607;-78
2022/09/03 09:09:11;;;;;;;9.38;6.43;;;;;;;20.13;96.26;94855.56;5062374;28;20245;-77
2022/09/03 09:11:50;;;;;;;7.10;6.03;;;;;;;20.06;96.83;94855.06;5064425;28;20197;-75
2022/09/03 09:14:24;;;;;;;6.63;5.63;;;;;;;20.26;95.43;94865.53;5065253;28;20197;-74
2022/09/03 09:17:02;;;;;;;6.47;5.20;;;;;;;20.23;95.01;94866.06;5066265;28;20237;-75
2022/09/03 09:19:41;;;;;;;6.32;5.60;;;;;;;20.30;95.05;94856.03;5066004;28;20246;-75
2022/09/03 09:22:14;;;;;;;6.75;6.05;;;;;;;20.45;96.19;94861.22;5065662;28;20280;-75
2022/09/03 09:24:45;;;;;;;5.85;5.25;;;;;;;20.57;93.48;94860.88;5063865;28;20578;-75
2022/09/03 09:27:16;;;;;;;9.10;5.80;;;;;;;20.61;93.30;94865.31;5065402;28;20672;-75
2022/09/03 09:29:46;;;;;;;4.55;4.10;;;;;;;20.59;92.42;94858.75;5064660;28;20288;-74
2022/09/03 09:32:14;;;;;;;5.63;5.03;;;;;;;20.58;93.47;94859.78;5066621;28;20212;-75
2022/09/03 09:34:43;;;;;;;5.38;4.88;;;;;;;20.74;92.29;94856.00;5066199;28;20213;-75
2022/09/03 09:37:13;;;;;;;5.40;4.90;;;;;;;21.06;92.49;94869.47;5066740;28;20225;-75
2022/09/03 09:39:40;;;;;;;6.05;5.45;;;;;;;21.38;92.80;94863.66;5065350;28;20284;-75
2022/09/03 09:42:10;;;;;;;5.15;4.65;;;;;;;21.46;89.66;94863.84;5064521;28;20212;-75
2022/09/03 09:44:39;;;;;;;6.15;5.55;;;;;;;21.65;90.26;94865.75;5064725;28;20576;-75
2022/09/03 09:47:08;;;;;;;10.45;5.70;;;;;;;21.88;89.47;94867.63;5065421;28;20668;-75
2022/09/03 09:49:43;;;;;;;5.97;5.20;;;;;;;22.01;87.89;94864.31;5065964;28;20201;-75
2022/09/03 09:52:13;;;;;;;6.40;5.80;;;;;;;22.33;86.62;94859.13;5066480;28;20213;-73
2022/09/03 09:54:41;;;;;;;6.82;5.82;;;;;;;22.55;85.43;94856.69;5065042;28;20657;-74
2022/09/03 09:57:17;;;;;;;6.85;5.70;;;;;;;22.55;84.56;94861.19;5064523;28;20205;-74
2022/09/03 09:59:45;;;;;;;5.80;5.20;;;;;;;22.52;84.60;94864.41;5064960;28;20205;-74
2022/09/03 10:02:14;;;;;;;7.45;5.97;;;;;;;22.31;85.66;94873.72;5066512;28;20350;-75
2022/09/03 10:04:42;;;;;;;6.22;5.57;;;;;;;22.20;85.41;94875.69;5064227;28;20209;-76
2022/09/03 10:07:22;;;;;;;6.78;6.00;;;;;;;22.41;86.18;94873.56;5065431;28;20243;-76
2022/09/03 10:10:03;;;;;;;7.50;6.55;;;;;;;22.77;85.05;94876.53;5064870;28;20213;-75
2022/09/03 10:12:34;;;;;;;5.85;5.25;;;;;;;22.94;84.56;94872.28;5063794;28;20211;-75
2022/09/03 10:15:16;;;;;;;5.82;5.30;;;;;;;23.31;81.28;94874.06;5061985;28;20233;-76
2022/09/03 10:17:50;;;;;;;6.72;5.03;;;;;;;23.51;82.79;94868.44;5063169;28;20227;-77
2022/09/03 10:20:29;;;;;;;5.70;4.82;;;;;;;23.69;78.65;94870.19;5065119;28;20209;-75
2022/09/03 10:23:03;;;;;;;6.93;5.00;;;;;;;23.44;79.10;94867.22;5063566;28;20238;-76
2022/09/03 10:25:39;;;;;;;7.25;5.20;;;;;;;23.60;79.80;94869.31;5064181;28;20208;-77
2022/09/03 10:28:08;;;;;;;11.43;5.70;;;;;;;23.93;78.47;94867.34;5065954;28;20320;-79
2022/09/03 10:30:46;;;;;;;29.15;6.53;;;;;;;24.32;76.91;94874.81;5066454;28;20208;-79
2022/09/03 10:33:19;;;;;;;11.95;5.20;;;;;;;24.76;78.24;94864.25;5066367;28;20208;-76
2022/09/03 10:35:52;;;;;;;31.00;6.32;;;;;;;24.83;73.78;94872.63;5065944;28;20305;-79
2022/09/03 10:38:28;;;;;;;16.80;5.55;;;;;;;24.54;75.36;94864.22;5064574;28;20217;-79
2022/09/03 10:41:06;;;;;;;14.15;5.47;;;;;;;24.76;76.07;94877.53;5064549;28;20209;-79
2022/09/03 10:44:12;;;;;;;8.10;5.07;;;;;;;24.91;74.56;94870.31;5063029;28;20197;-78
2022/09/03 10:46:53;;;;;;;5.15;4.63;;;;;;;24.77;72.55;94873.00;5035116;28;20209;-78
2022/09/03 10:49:35;;;;;;;5.30;4.80;;;;;;;24.45;74.16;94870.53;5065627;28;20201;-80
2022/09/03 10:52:09;;;;;;;6.57;5.20;;;;;;;24.61;76.02;94866.47;5065631;28;20202;-80
2022/09/03 10:54:49;;;;;;;5.80;5.30;;;;;;;24.83;75.20;94871.84;5065837;28;20192;-80
2022/09/03 10:57:31;;;;;;;5.65;5.15;;;;;;;25.14;73.26;94867.38;5060495;28;20208;-80
2022/09/03 11:00:06;;;;;;;5.00;4.50;;;;;;;25.36;72.09;94886.00;5062975;28;20201;-78
2022/09/03 11:02:58;;;;;;;5.30;4.35;;;;;;;25.45;70.61;94885.25;5064973;28;20760;-79
2022/09/03 11:05:44;;;;;;;7.10;4.95;;;;;;;25.58;71.31;94885.19;5066066;28;20637;-78
2022/09/03 11:08:17;;;;;;;5.22;4.72;;;;;;;25.60;72.63;94883.00;5065101;28;20694;-78
2022/09/03 11:10:49;;;;;;;4.78;4.38;;;;;;;25.82;71.02;94882.94;5064134;28;20213;-79
2022/09/03 11:13:20;;;;;;;6.25;4.70;;;;;;;25.87;70.40;94890.78;5064220;28;20296;-81
2022/09/03 11:15:51;;;;;;;4.90;4.40;;;;;;;25.70;70.77;94881.94;5064540;28;20742;-79
2022/09/03 11:18:24;;;;;;;5.88;5.38;;;;;;;25.83;70.52;94883.75;5065067;28;20692;-75
2022/09/03 11:20:55;;;;;;;5.65;5.15;;;;;;;25.97;71.33;94881.75;5062773;28;20201;-74
2022/09/03 11:23:24;;;;;;;5.28;4.70;;;;;;;26.13;71.20;94882.09;5062948;28;20198;-74
2022/09/03 11:25:57;;;;;;;5.03;4.53;;;;;;;26.54;68.95;94887.06;5063864;28;20221;-74
2022/09/03 11:28:39;;;;;;;5.13;4.60;;;;;;;26.91;68.18;94881.94;5063329;28;20205;-74
2022/09/03 11:31:20;;;;;;;6.43;4.45;;;;;;;26.50;69.09;94882.34;5062497;28;20197;-73
2022/09/03 11:33:52;;;;;;;6.47;4.80;;;;;;;26.29;68.76;94870.72;5062944;28;20207;-73
2022/09/03 11:36:30;;;;;;;10.88;4.43;;;;;;;26.43;70.08;94870.59;5062927;28;21410;-73
2022/09/03 11:38:57;;;;;;;7.70;5.28;;;;;;;26.64;69.53;94870.78;5061008;28;20225;-73
2022/09/03 11:41:27;;;;;;;5.70;4.70;;;;;;;26.36;69.84;94871.06;5061725;28;20212;-73
2022/09/03 11:43:54;;;;;;;5.30;4.80;;;;;;;26.42;69.36;94874.34;5063771;28;20205;-74